sensor_id;sensor_type;location;lat;lon;timestamp;pressure;altitude;pressure_sealevel;temperature;humidity
38227;BME280;24026;49.446;8.576;2023-02-19T00:01:58;101079.06;;;13.81;54.38
38227;BME280;24026;49.446;8.576;2023-02-19T00:04:20;101078.25;;;13.80;54.50
38227;BME280;24026;49.446;8.576;2023-02-19T00:06:42;101074.75;;;13.80;54.43
38227;BME280;24026;49.446;8.576;2023-02-19T00:09:03;101070.78;;;13.82;54.07
38227;BME280;24026;49.446;8.576;2023-02-19T00:11:26;101060.91;;;13.83;54.18
38227;BME280;24026;49.446;8.576;2023-02-19T00:13:49;101035.75;;;13.79;54.39
38227;BME280;24026;49.446;8.576;2023-02-19T00:16:16;101048.63;;;13.82;54.25
38227;BME280;24026;49.446;8.576;2023-02-19T00:18:37;101052.59;;;13.79;54.22
38227;BME280;24026;49.446;8.576;2023-02-19T00:20:57;101046.19;;;13.80;54.03
38227;BME280;24026;49.446;8.576;2023-02-19T00:23:17;101050.22;;;13.83;54.18
38227;BME280;24026;49.446;8.576;2023-02-19T00:25:38;101055.00;;;13.81;54.28
38227;BME280;24026;49.446;8.576;2023-02-19T00:27:58;101058.41;;;13.76;54.38
38227;BME280;24026;49.446;8.576;2023-02-19T00:30:18;101053.66;;;13.78;54.37
38227;BME280;24026;49.446;8.576;2023-02-19T00:32:39;101067.50;;;13.75;54.38
38227;BME280;24026;49.446;8.576;2023-02-19T00:34:59;101060.84;;;13.78;54.30
38227;BME280;24026;49.446;8.576;2023-02-19T00:37:20;101065.13;;;13.79;54.25
38227;BME280;24026;49.446;8.576;2023-02-19T00:39:40;101069.69;;;13.78;54.24
38227;BME280;24026;49.446;8.576;2023-02-19T00:42:01;101069.41;;;13.80;54.54
38227;BME280;24026;49.446;8.576;2023-02-19T00:44:21;101064.59;;;13.77;54.50
38227;BME280;24026;49.446;8.576;2023-02-19T00:46:44;101067.00;;;13.78;54.21
38227;BME280;24026;49.446;8.576;2023-02-19T00:49:06;101052.50;;;13.74;54.29
38227;BME280;24026;49.446;8.576;2023-02-19T00:51:30;101049.84;;;13.74;54.52
38227;BME280;24026;49.446;8.576;2023-02-19T00:53:50;101058.41;;;13.76;54.36
38227;BME280;24026;49.446;8.576;2023-02-19T00:56:11;101058.41;;;13.76;54.44
38227;BME280;24026;49.446;8.576;2023-02-19T00:58:31;101067.50;;;13.75;54.30
38227;BME280;24026;49.446;8.576;2023-02-19T01:00:52;101057.31;;;13.72;54.36
38227;BME280;24026;49.446;8.576;2023-02-19T01:03:12;101057.63;;;13.76;54.29
38227;BME280;24026;49.446;8.576;2023-02-19T01:05:32;101065.88;;;13.74;54.33
38227;BME280;24026;49.446;8.576;2023-02-19T01:07:53;101061.09;;;13.76;54.49
38227;BME280;24026;49.446;8.576;2023-02-19T01:10:13;101056.81;;;13.75;54.35
38227;BME280;24026;49.446;8.576;2023-02-19T01:12:34;101062.41;;;13.74;54.03
38227;BME280;24026;49.446;8.576;2023-02-19T01:14:54;101056.81;;;13.75;54.38
38227;BME280;24026;49.446;8.576;2023-02-19T01:17:14;101057.31;;;13.72;54.47
38227;BME280;24026;49.446;8.576;2023-02-19T01:19:35;101069.59;;;13.73;54.47
38227;BME280;24026;49.446;8.576;2023-02-19T01:21:55;101075.50;;;13.75;54.17
38227;BME280;24026;49.446;8.576;2023-02-19T01:24:16;101078.13;;;13.70;54.50
38227;BME280;24026;49.446;8.576;2023-02-19T01:26:36;101075.09;;;13.66;54.59
38227;BME280;24026;49.446;8.576;2023-02-19T01:28:58;101063.44;;;13.73;54.44
38227;BME280;24026;49.446;8.576;2023-02-19T01:31:21;101068.06;;;13.77;54.19
38227;BME280;24026;49.446;8.576;2023-02-19T01:33:46;101060.03;;;13.77;54.31
38227;BME280;24026;49.446;8.576;2023-02-19T01:36:07;101044.19;;;13.70;54.31
38227;BME280;24026;49.446;8.576;2023-02-19T01:38:28;101037.03;;;13.76;54.36
38227;BME280;24026;49.446;8.576;2023-02-19T01:40:58;101031.88;;;13.69;54.47
38227;BME280;24026;49.446;8.576;2023-02-19T01:43:19;101047.41;;;13.73;54.41
38227;BME280;24026;49.446;8.576;2023-02-19T01:45:42;101044.25;;;13.76;54.42
38227;BME280;24026;49.446;8.576;2023-02-19T01:48:10;101042.31;;;13.71;54.39
38227;BME280;24026;49.446;8.576;2023-02-19T01:50:37;101048.72;;;13.70;54.58
38227;BME280;24026;49.446;8.576;2023-02-19T01:53:02;101058.09;;;13.73;54.54
38227;BME280;24026;49.446;8.576;2023-02-19T01:55:24;101046.31;;;13.68;54.63
38227;BME280;24026;49.446;8.576;2023-02-19T01:57:46;101039.56;;;13.66;55.03
38227;BME280;24026;49.446;8.576;2023-02-19T02:00:13;101035.13;;;13.71;54.55
38227;BME280;24026;49.446;8.576;2023-02-19T02:02:34;101028.47;;;13.74;54.48
38227;BME280;24026;49.446;8.576;2023-02-19T02:04:56;101029.44;;;13.68;54.63
38227;BME280;24026;49.446;8.576;2023-02-19T02:07:19;101028.16;;;13.70;54.49
38227;BME280;24026;49.446;8.576;2023-02-19T02:09:59;101025.72;;;13.69;54.64
38227;BME280;24026;49.446;8.576;2023-02-19T02:12:38;101013.41;;;13.68;54.66
38227;BME280;24026;49.446;8.576;2023-02-19T02:14:58;101022.81;;;13.70;54.59
38227;BME280;24026;49.446;8.576;2023-02-19T02:17:33;101026.53;;;13.69;54.68
38227;BME280;24026;49.446;8.576;2023-02-19T02:22:54;101017.66;;;13.64;54.82
38227;BME280;24026;49.446;8.576;2023-02-19T02:31:18;101016.63;;;13.65;54.96
38227;BME280;24026;49.446;8.576;2023-02-19T02:36:19;101002.44;;;13.64;54.94
38227;BME280;24026;49.446;8.576;2023-02-19T02:38:42;101011.81;;;13.67;54.80
38227;BME280;24026;49.446;8.576;2023-02-19T02:41:04;101006.47;;;13.67;55.02
38227;BME280;24026;49.446;8.576;2023-02-19T02:43:25;101012.06;;;13.65;55.12
38227;BME280;24026;49.446;8.576;2023-02-19T02:45:46;101002.66;;;13.63;55.11
38227;BME280;24026;49.446;8.576;2023-02-19T02:48:21;100990.63;;;13.60;55.25
38227;BME280;24026;49.446;8.576;2023-02-19T02:50:51;100994.91;;;13.61;55.18
38227;BME280;24026;49.446;8.576;2023-02-19T02:53:28;100994.59;;;13.58;55.30
38227;BME280;24026;49.446;8.576;2023-02-19T02:56:11;100991.75;;;13.64;55.09
38227;BME280;24026;49.446;8.576;2023-02-19T02:58:33;100992.00;;;13.63;55.19
38227;BME280;24026;49.446;8.576;2023-02-19T03:00:58;101002.44;;;13.64;55.35
38227;BME280;24026;49.446;8.576;2023-02-19T03:03:40;101015.22;;;13.62;55.24
38227;BME280;24026;49.446;8.576;2023-02-19T03:06:06;101003.16;;;13.60;55.37
38227;BME280;24026;49.446;8.576;2023-02-19T03:08:30;100995.72;;;13.62;55.29
38227;BME280;24026;49.446;8.576;2023-02-19T03:11:13;100999.69;;;13.59;55.49
38227;BME280;24026;49.446;8.576;2023-02-19T03:14:09;100995.66;;;13.57;55.80
38227;BME280;24026;49.446;8.576;2023-02-19T03:16:50;101002.59;;;13.58;55.74
38227;BME280;24026;49.446;8.576;2023-02-19T03:19:34;100992.16;;;13.56;55.82
38227;BME280;24026;49.446;8.576;2023-02-19T03:24:32;100994.84;;;13.56;55.73
38227;BME280;24026;49.446;8.576;2023-02-19T03:27:14;101012.50;;;13.57;55.64
38227;BME280;24026;49.446;8.576;2023-02-19T03:29:37;101016.19;;;13.56;55.74
38227;BME280;24026;49.446;8.576;2023-02-19T03:32:16;101005.75;;;13.55;55.92
38227;BME280;24026;49.446;8.576;2023-02-19T03:34:44;101005.22;;;13.52;55.68
38227;BME280;24026;49.446;8.576;2023-02-19T03:37:21;100995.31;;;13.53;55.78
38227;BME280;24026;49.446;8.576;2023-02-19T03:39:44;101002.59;;;13.58;55.95
38227;BME280;24026;49.446;8.576;2023-02-19T03:45:05;100991.59;;;13.54;56.05
38227;BME280;24026;49.446;8.576;2023-02-19T03:47:37;101002.06;;;13.56;56.25
38227;BME280;24026;49.446;8.576;2023-02-19T03:50:23;100989.91;;;13.48;56.30
38227;BME280;24026;49.446;8.576;2023-02-19T03:55:41;100993.16;;;13.50;56.30
38227;BME280;24026;49.446;8.576;2023-02-19T04:03:30;100993.41;;;13.48;56.65
38227;BME280;24026;49.446;8.576;2023-02-19T04:05:58;100999.31;;;13.50;56.26
38227;BME280;24026;49.446;8.576;2023-02-19T04:08:22;101005.44;;;13.51;56.52
38227;BME280;24026;49.446;8.576;2023-02-19T04:10:45;101010.53;;;13.52;56.57
38227;BME280;24026;49.446;8.576;2023-02-19T04:13:15;101009.75;;;13.52;56.59
38227;BME280;24026;49.446;8.576;2023-02-19T04:15:40;101008.69;;;13.53;56.63
38227;BME280;24026;49.446;8.576;2023-02-19T04:18:08;101003.03;;;13.49;56.69
38227;BME280;24026;49.446;8.576;2023-02-19T04:20:35;100998.28;;;13.51;56.50
38227;BME280;24026;49.446;8.576;2023-02-19T04:22:58;101002.22;;;13.49;56.84
38227;BME280;24026;49.446;8.576;2023-02-19T04:25:19;101003.34;;;13.53;56.51
38227;BME280;24026;49.446;8.576;2023-02-19T04:27:43;101004.09;;;13.48;56.89
38227;BME280;24026;49.446;8.576;2023-02-19T04:30:06;101010.00;;;13.50;56.95
38227;BME280;24026;49.446;8.576;2023-02-19T04:32:27;101017.19;;;13.50;56.94
38227;BME280;24026;49.446;8.576;2023-02-19T04:34:47;101019.28;;;13.48;56.91
38227;BME280;24026;49.446;8.576;2023-02-19T04:37:08;101014.19;;;13.46;56.79
38227;BME280;24026;49.446;8.576;2023-02-19T04:39:28;101015.50;;;13.44;57.22
38227;BME280;24026;49.446;8.576;2023-02-19T04:41:49;101023.28;;;13.45;56.96
38227;BME280;24026;49.446;8.576;2023-02-19T04:44:09;101016.06;;;13.46;57.40
38227;BME280;24026;49.446;8.576;2023-02-19T04:46:29;101018.72;;;13.46;57.19
38227;BME280;24026;49.446;8.576;2023-02-19T04:48:50;101021.41;;;13.46;57.13
38227;BME280;24026;49.446;8.576;2023-02-19T04:51:10;101016.31;;;13.44;57.12
38227;BME280;24026;49.446;8.576;2023-02-19T04:53:31;101028.06;;;13.43;57.32
38227;BME280;24026;49.446;8.576;2023-02-19T04:55:51;101024.31;;;13.44;57.58
38227;BME280;24026;49.446;8.576;2023-02-19T04:58:12;101017.63;;;13.42;57.65
38227;BME280;24026;49.446;8.576;2023-02-19T05:00:33;101011.22;;;13.43;57.41
38227;BME280;24026;49.446;8.576;2023-02-19T05:02:53;101014.94;;;13.42;57.40
38227;BME280;24026;49.446;8.576;2023-02-19T05:05:13;101021.66;;;13.44;57.47
38227;BME280;24026;49.446;8.576;2023-02-19T05:07:34;101019.47;;;13.41;57.63
38227;BME280;24026;49.446;8.576;2023-02-19T05:09:54;101015.44;;;13.39;57.74
38227;BME280;24026;49.446;8.576;2023-02-19T05:12:15;101027.16;;;13.38;57.80
38227;BME280;24026;49.446;8.576;2023-02-19T05:14:35;101021.09;;;13.42;57.76
38227;BME280;24026;49.446;8.576;2023-02-19T05:16:55;101015.75;;;13.42;57.52
38227;BME280;24026;49.446;8.576;2023-02-19T05:19:16;101020.03;;;13.43;57.78
38227;BME280;24026;49.446;8.576;2023-02-19T05:21:37;101026.66;;;13.41;57.68
38227;BME280;24026;49.446;8.576;2023-02-19T05:23:58;101026.91;;;13.39;57.77
38227;BME280;24026;49.446;8.576;2023-02-19T05:26:21;101019.97;;;13.38;57.89
38227;BME280;24026;49.446;8.576;2023-02-19T05:28:43;101032.81;;;13.41;57.83
38227;BME280;24026;49.446;8.576;2023-02-19T05:31:05;101030.13;;;13.41;57.72
38227;BME280;24026;49.446;8.576;2023-02-19T05:33:26;101025.63;;;13.42;57.92
38227;BME280;24026;49.446;8.576;2023-02-19T05:35:49;101022.97;;;13.42;57.77
38227;BME280;24026;49.446;8.576;2023-02-19T05:38:10;101029.59;;;13.39;58.00
38227;BME280;24026;49.446;8.576;2023-02-19T05:40:31;101033.31;;;13.38;57.98
38227;BME280;24026;49.446;8.576;2023-02-19T05:42:52;101039.16;;;13.35;58.08
38227;BME280;24026;49.446;8.576;2023-02-19T05:45:12;101036.56;;;13.40;57.92
38227;BME280;24026;49.446;8.576;2023-02-19T05:47:32;101031.38;;;13.33;58.37
38227;BME280;24026;49.446;8.576;2023-02-19T05:49:53;101032.75;;;13.36;58.16
38227;BME280;24026;49.446;8.576;2023-02-19T05:52:13;101038.06;;;13.36;58.23
38227;BME280;24026;49.446;8.576;2023-02-19T05:54:33;101034.59;;;13.36;58.12
38227;BME280;24026;49.446;8.576;2023-02-19T05:56:54;101035.41;;;13.36;58.34
38227;BME280;24026;49.446;8.576;2023-02-19T06:01:35;101036.47;;;13.35;58.31
38227;BME280;24026;49.446;8.576;2023-02-19T06:03:56;101035.41;;;13.36;58.18
38227;BME280;24026;49.446;8.576;2023-02-19T06:06:18;101054.09;;;13.36;58.49
38227;BME280;24026;49.446;8.576;2023-02-19T06:08:38;101051.31;;;13.31;58.55
38227;BME280;24026;49.446;8.576;2023-02-19T06:10:58;101058.06;;;13.33;58.49
38227;BME280;24026;49.446;8.576;2023-02-19T06:13:19;101054.47;;;13.28;58.67
38227;BME280;24026;49.446;8.576;2023-02-19T06:15:39;101052.97;;;13.32;58.63
38227;BME280;24026;49.446;8.576;2023-02-19T06:18:00;101054.56;;;13.33;58.39
38227;BME280;24026;49.446;8.576;2023-02-19T06:20:21;101058.88;;;13.34;58.55
38227;BME280;24026;49.446;8.576;2023-02-19T06:22:41;101067.94;;;13.33;58.50
38227;BME280;24026;49.446;8.576;2023-02-19T06:25:02;101070.59;;;13.33;58.67
38227;BME280;24026;49.446;8.576;2023-02-19T06:27:22;101062.81;;;13.31;58.66
38227;BME280;24026;49.446;8.576;2023-02-19T06:29:43;101078.00;;;13.31;58.55
38227;BME280;24026;49.446;8.576;2023-02-19T06:32:04;101084.53;;;13.35;58.49
38227;BME280;24026;49.446;8.576;2023-02-19T06:34:25;101078.59;;;13.33;58.64
38227;BME280;24026;49.446;8.576;2023-02-19T06:36:48;101088.69;;;13.31;58.73
38227;BME280;24026;49.446;8.576;2023-02-19T06:39:08;101085.47;;;13.29;58.69
38227;BME280;24026;49.446;8.576;2023-02-19T06:41:29;101085.47;;;13.29;58.96
38227;BME280;24026;49.446;8.576;2023-02-19T06:43:49;101081.09;;;13.23;59.39
38227;BME280;24026;49.446;8.576;2023-02-19T06:46:11;101080.38;;;13.27;58.91
38227;BME280;24026;49.446;8.576;2023-02-19T06:48:32;101089.16;;;13.28;58.91
38227;BME280;24026;49.446;8.576;2023-02-19T06:50:53;101095.34;;;13.28;58.92
38227;BME280;24026;49.446;8.576;2023-02-19T06:53:13;101098.25;;;13.27;58.96
38227;BME280;24026;49.446;8.576;2023-02-19T06:55:34;101102.75;;;13.26;58.91
38227;BME280;24026;49.446;8.576;2023-02-19T06:57:54;101105.44;;;13.26;58.95
38227;BME280;24026;49.446;8.576;2023-02-19T07:00:15;101123.31;;;13.26;59.16
38227;BME280;24026;49.446;8.576;2023-02-19T07:02:35;101127.06;;;13.25;59.12
38227;BME280;24026;49.446;8.576;2023-02-19T07:04:56;101129.72;;;13.25;59.31
38227;BME280;24026;49.446;8.576;2023-02-19T07:07:16;101128.34;;;13.22;59.24
38227;BME280;24026;49.446;8.576;2023-02-19T07:09:37;101133.19;;;13.25;59.12
38227;BME280;24026;49.446;8.576;2023-02-19T07:11:57;101141.44;;;13.24;59.26
38227;BME280;24026;49.446;8.576;2023-02-19T07:14:17;101145.16;;;13.23;59.40
38227;BME280;24026;49.446;8.576;2023-02-19T07:16:38;101144.34;;;13.22;59.33
38227;BME280;24026;49.446;8.576;2023-02-19T07:18:59;101148.66;;;13.23;59.14
38227;BME280;24026;49.446;8.576;2023-02-19T07:21:21;101150.97;;;13.20;59.28
38227;BME280;24026;49.446;8.576;2023-02-19T07:23:42;101154.78;;;13.24;59.44
38227;BME280;24026;49.446;8.576;2023-02-19T07:26:03;101160.94;;;13.24;59.22
38227;BME280;24026;49.446;8.576;2023-02-19T07:28:24;101156.06;;;13.21;59.32
38227;BME280;24026;49.446;8.576;2023-02-19T07:30:44;101161.91;;;13.18;59.61
38227;BME280;24026;49.446;8.576;2023-02-19T07:33:05;101158.97;;;13.20;59.21
38227;BME280;24026;49.446;8.576;2023-02-19T07:35:25;101146.47;;;13.20;59.49
38227;BME280;24026;49.446;8.576;2023-02-19T07:37:46;101149.94;;;13.21;59.57
38227;BME280;24026;49.446;8.576;2023-02-19T07:40:07;101145.63;;;13.20;59.33
38227;BME280;24026;49.446;8.576;2023-02-19T07:42:27;101141.34;;;13.19;59.47
38227;BME280;24026;49.446;8.576;2023-02-19T07:44:47;101138.69;;;13.19;59.47
38227;BME280;24026;49.446;8.576;2023-02-19T07:47:08;101143.94;;;13.13;59.58
38227;BME280;24026;49.446;8.576;2023-02-19T07:49:28;101145.63;;;13.20;59.32
38227;BME280;24026;49.446;8.576;2023-02-19T07:51:49;101140.88;;;13.22;59.33
38227;BME280;24026;49.446;8.576;2023-02-19T07:54:09;101143.47;;;13.16;59.45
38227;BME280;24026;49.446;8.576;2023-02-19T07:56:30;101140.78;;;13.16;59.33
38227;BME280;24026;49.446;8.576;2023-02-19T07:58:51;101141.69;;;13.22;59.12
38227;BME280;24026;49.446;8.576;2023-02-19T08:01:16;101143.22;;;13.18;59.29
38227;BME280;24026;49.446;8.576;2023-02-19T08:03:37;101152.13;;;13.24;59.36
38227;BME280;24026;49.446;8.576;2023-02-19T08:05:58;101161.41;;;13.21;59.40
38227;BME280;24026;49.446;8.576;2023-02-19T08:08:18;101164.06;;;13.21;59.32
38227;BME280;24026;49.446;8.576;2023-02-19T08:10:39;101170.00;;;13.23;59.33
38227;BME280;24026;49.446;8.576;2023-02-19T08:13:19;101184.16;;;13.24;59.35
38227;BME280;24026;49.446;8.576;2023-02-19T08:15:41;101175.81;;;13.20;59.34
38227;BME280;24026;49.446;8.576;2023-02-19T08:18:02;101172.66;;;13.23;59.08
38227;BME280;24026;49.446;8.576;2023-02-19T08:20:22;101178.47;;;13.20;59.24
38227;BME280;24026;49.446;8.576;2023-02-19T08:22:43;101177.91;;;13.18;59.46
38227;BME280;24026;49.446;8.576;2023-02-19T08:25:03;101178.25;;;13.22;59.27
38227;BME280;24026;49.446;8.576;2023-02-19T08:27:24;101178.25;;;13.22;59.11
38227;BME280;24026;49.446;8.576;2023-02-19T08:29:44;101184.16;;;13.24;59.04
38227;BME280;24026;49.446;8.576;2023-02-19T08:32:04;101177.19;;;13.23;59.20
38227;BME280;24026;49.446;8.576;2023-02-19T08:34:25;101179.38;;;13.26;59.00
38227;BME280;24026;49.446;8.576;2023-02-19T08:36:45;101177.19;;;13.23;59.15
38227;BME280;24026;49.446;8.576;2023-02-19T08:39:06;101188.69;;;13.23;58.95
38227;BME280;24026;49.446;8.576;2023-02-19T08:41:26;101190.84;;;13.26;58.79
38227;BME280;24026;49.446;8.576;2023-02-19T08:43:47;101202.84;;;13.24;58.88
38227;BME280;24026;49.446;8.576;2023-02-19T08:46:08;101209.91;;;13.30;58.70
38227;BME280;24026;49.446;8.576;2023-02-19T08:48:32;101211.88;;;13.23;58.83
38227;BME280;24026;49.446;8.576;2023-02-19T08:51:01;101212.22;;;13.26;58.71
38227;BME280;24026;49.446;8.576;2023-02-19T08:53:26;101220.81;;;13.28;58.60
38227;BME280;24026;49.446;8.576;2023-02-19T08:55:46;101230.19;;;13.31;58.67
38227;BME280;24026;49.446;8.576;2023-02-19T08:58:06;101229.97;;;13.32;58.39
38227;BME280;24026;49.446;8.576;2023-02-19T09:00:27;101232.28;;;13.29;58.58
38227;BME280;24026;49.446;8.576;2023-02-19T09:02:48;101228.34;;;13.31;58.55
38227;BME280;24026;49.446;8.576;2023-02-19T09:05:12;101235.31;;;13.32;58.41
38227;BME280;24026;49.446;8.576;2023-02-19T09:07:32;101241.22;;;13.34;58.22
38227;BME280;24026;49.446;8.576;2023-02-19T09:09:53;101253.31;;;13.37;58.24
38227;BME280;24026;49.446;8.576;2023-02-19T09:12:14;101241.81;;;13.37;58.11
38227;BME280;24026;49.446;8.576;2023-02-19T09:14:34;101254.56;;;13.34;58.45
38227;BME280;24026;49.446;8.576;2023-02-19T09:16:55;101261.53;;;13.36;58.17
38227;BME280;24026;49.446;8.576;2023-02-19T09:19:15;101261.88;;;13.39;58.18
38227;BME280;24026;49.446;8.576;2023-02-19T09:21:35;101259.53;;;13.43;57.99
38227;BME280;24026;49.446;8.576;2023-02-19T09:23:56;101266.75;;;13.42;57.76
38227;BME280;24026;49.446;8.576;2023-02-19T09:26:16;101263.84;;;13.44;57.90
38227;BME280;24026;49.446;8.576;2023-02-19T09:28:37;101260.94;;;13.45;57.88
38227;BME280;24026;49.446;8.576;2023-02-19T09:31:08;101266.50;;;13.44;57.80
38227;BME280;24026;49.446;8.576;2023-02-19T09:33:30;101269.97;;;13.44;57.87
38227;BME280;24026;49.446;8.576;2023-02-19T09:35:50;101272.19;;;13.47;57.81
38227;BME280;24026;49.446;8.576;2023-02-19T09:38:10;101273.56;;;13.50;57.70
38227;BME280;24026;49.446;8.576;2023-02-19T09:40:31;101274.59;;;13.49;57.74
38227;BME280;24026;49.446;8.576;2023-02-19T09:42:51;101282.38;;;13.50;57.57
38227;BME280;24026;49.446;8.576;2023-02-19T09:45:20;101274.59;;;13.49;57.57
38227;BME280;24026;49.446;8.576;2023-02-19T09:47:41;101281.06;;;13.53;57.63
38227;BME280;24026;49.446;8.576;2023-02-19T09:50:07;101285.63;;;13.52;57.60
38227;BME280;24026;49.446;8.576;2023-02-19T09:52:42;101282.38;;;13.50;57.41
38227;BME280;24026;49.446;8.576;2023-02-19T09:55:17;101287.97;;;13.49;57.40
38227;BME280;24026;49.446;8.576;2023-02-19T09:57:43;101284.03;;;13.51;57.78
38227;BME280;24026;49.446;8.576;2023-02-19T10:00:18;101282.38;;;13.50;57.46
38227;BME280;24026;49.446;8.576;2023-02-19T10:02:39;101289.69;;;13.55;57.51
38227;BME280;24026;49.446;8.576;2023-02-19T10:05:02;101286.19;;;13.55;57.14
38227;BME280;24026;49.446;8.576;2023-02-19T10:07:44;101290.41;;;13.50;57.25
38227;BME280;24026;49.446;8.576;2023-02-19T10:10:26;101282.16;;;13.52;57.16
38227;BME280;24026;49.446;8.576;2023-02-19T10:12:51;101279.56;;;13.57;57.31
38227;BME280;24026;49.446;8.576;2023-02-19T10:15:22;101267.00;;;13.58;57.02
38227;BME280;24026;49.446;8.576;2023-02-19T10:17:44;101267.56;;;13.60;57.19
38227;BME280;24026;49.446;8.576;2023-02-19T10:20:05;101269.22;;;13.61;57.30
38227;BME280;24026;49.446;8.576;2023-02-19T10:22:26;101266.31;;;13.62;57.07
38227;BME280;24026;49.446;8.576;2023-02-19T10:24:50;101273.28;;;13.63;56.84
38227;BME280;24026;49.446;8.576;2023-02-19T10:27:13;101281.06;;;13.65;56.83
38227;BME280;24026;49.446;8.576;2023-02-19T10:29:33;101273.84;;;13.65;56.92
38227;BME280;24026;49.446;8.576;2023-02-19T10:32:14;101274.56;;;13.61;56.76
38227;BME280;24026;49.446;8.576;2023-02-19T10:34:37;101280.53;;;13.68;56.74
38227;BME280;24026;49.446;8.576;2023-02-19T10:36:57;101278.69;;;13.68;56.71
38227;BME280;24026;49.446;8.576;2023-02-19T10:41:41;101279.03;;;13.72;56.63
38227;BME280;24026;49.446;8.576;2023-02-19T10:44:08;101284.38;;;13.72;56.36
38227;BME280;24026;49.446;8.576;2023-02-19T10:46:35;101289.25;;;13.75;56.50
38227;BME280;24026;49.446;8.576;2023-02-19T10:49:05;101294.25;;;13.71;56.48
38227;BME280;24026;49.446;8.576;2023-02-19T10:51:38;101293.44;;;13.71;56.27
38227;BME280;24026;49.446;8.576;2023-02-19T10:54:30;101296.56;;;13.68;56.43
38227;BME280;24026;49.446;8.576;2023-02-19T10:56:52;101297.50;;;13.74;56.42
38227;BME280;24026;49.446;8.576;2023-02-19T10:59:24;101299.59;;;13.71;56.32
38227;BME280;24026;49.446;8.576;2023-02-19T11:02:01;101308.41;;;13.72;56.31
38227;BME280;24026;49.446;8.576;2023-02-19T11:04:22;101312.81;;;13.78;56.16
38227;BME280;24026;49.446;8.576;2023-02-19T11:06:43;101318.97;;;13.79;56.32
38227;BME280;24026;49.446;8.576;2023-02-19T11:09:05;101322.44;;;13.79;56.25
38227;BME280;24026;49.446;8.576;2023-02-19T11:11:37;101331.25;;;13.80;56.16
38227;BME280;24026;49.446;8.576;2023-02-19T11:14:01;101332.63;;;13.82;56.04
38227;BME280;24026;49.446;8.576;2023-02-19T11:16:57;101338.94;;;13.76;56.00
38227;BME280;24026;49.446;8.576;2023-02-19T11:19:38;101352.88;;;13.78;56.04
38227;BME280;24026;49.446;8.576;2023-02-19T11:22:16;101348.66;;;13.82;56.14
38227;BME280;24026;49.446;8.576;2023-02-19T11:24:37;101352.16;;;13.83;55.91
38227;BME280;24026;49.446;8.576;2023-02-19T11:27:02;101362.34;;;13.86;55.93
38227;BME280;24026;49.446;8.576;2023-02-19T11:29:24;101358.88;;;13.85;55.84
38227;BME280;24026;49.446;8.576;2023-02-19T11:31:47;101361.09;;;13.88;55.85
38227;BME280;24026;49.446;8.576;2023-02-19T11:36:36;101354.09;;;13.87;55.54
38227;BME280;24026;49.446;8.576;2023-02-19T11:39:04;101343.19;;;13.89;55.52
38227;BME280;24026;49.446;8.576;2023-02-19T11:41:50;101341.78;;;13.86;55.49
38227;BME280;24026;49.446;8.576;2023-02-19T11:44:37;101339.94;;;13.87;55.38
38227;BME280;24026;49.446;8.576;2023-02-19T11:55:15;101329.44;;;13.97;55.13
38227;BME280;24026;49.446;8.576;2023-02-19T11:57:46;101335.34;;;13.99;55.10
38227;BME280;24026;49.446;8.576;2023-02-19T12:00:20;101332.97;;;14.03;54.77
38227;BME280;24026;49.446;8.576;2023-02-19T12:11:10;101331.38;;;14.02;54.86
38227;BME280;24026;49.446;8.576;2023-02-19T12:18:54;101331.94;;;14.04;54.64
38227;BME280;24026;49.446;8.576;2023-02-19T12:24:14;101330.31;;;14.03;54.90
38227;BME280;24026;49.446;8.576;2023-02-19T12:27:00;101337.78;;;14.01;54.65
38227;BME280;24026;49.446;8.576;2023-02-19T12:32:24;101350.41;;;14.05;54.61
38227;BME280;24026;49.446;8.576;2023-02-19T12:37:26;101339.50;;;14.07;54.56
38227;BME280;24026;49.446;8.576;2023-02-19T12:45:41;101327.06;;;14.01;54.49
38227;BME280;24026;49.446;8.576;2023-02-19T12:50:46;101332.97;;;14.03;54.38
38227;BME280;24026;49.446;8.576;2023-02-19T12:55:43;101341.31;;;14.06;54.12
38227;BME280;24026;49.446;8.576;2023-02-19T12:58:10;101334.13;;;14.07;54.05
38227;BME280;24026;49.446;8.576;2023-02-19T13:00:38;101334.94;;;14.07;54.11
38227;BME280;24026;49.446;8.576;2023-02-19T13:03:08;101333.56;;;14.05;54.16
38227;BME280;24026;49.446;8.576;2023-02-19T13:08:02;101325.56;;;14.05;54.12
38227;BME280;24026;49.446;8.576;2023-02-19T13:12:48;101325.28;;;14.06;54.35
38227;BME280;24026;49.446;8.576;2023-02-19T13:15:17;101309.53;;;14.05;53.91
38227;BME280;24026;49.446;8.576;2023-02-19T13:17:45;101314.94;;;14.10;53.96
38227;BME280;24026;49.446;8.576;2023-02-19T13:20:17;101305.53;;;14.07;53.75
38227;BME280;24026;49.446;8.576;2023-02-19T13:22:45;101312.50;;;14.08;53.85
38227;BME280;24026;49.446;8.576;2023-02-19T13:36:25;101311.22;;;14.11;53.79
38227;BME280;24026;49.446;8.576;2023-02-19T13:38:47;101296.78;;;14.12;53.55
38227;BME280;24026;49.446;8.576;2023-02-19T13:41:17;101303.75;;;14.13;53.42
38227;BME280;24026;49.446;8.576;2023-02-19T13:43:39;101294.44;;;14.16;53.71
38227;BME280;24026;49.446;8.576;2023-02-19T13:46:07;101289.34;;;14.14;53.31
38227;BME280;24026;49.446;8.576;2023-02-19T13:48:37;101292.00;;;14.14;53.69
38227;BME280;24026;49.446;8.576;2023-02-19T13:53:58;101297.13;;;14.16;52.99
38227;BME280;24026;49.446;8.576;2023-02-19T14:01:17;101300.59;;;14.16;53.26
38227;BME280;24026;49.446;8.576;2023-02-19T14:06:07;101310.72;;;14.14;53.03
38227;BME280;24026;49.446;8.576;2023-02-19T14:11:07;101305.53;;;14.07;53.61
38227;BME280;24026;49.446;8.576;2023-02-19T14:18:49;101325.66;;;14.10;53.21
38227;BME280;24026;49.446;8.576;2023-02-19T14:21:36;101325.56;;;14.05;53.06
38227;BME280;24026;49.446;8.576;2023-02-19T14:23:57;101331.00;;;14.10;52.99